Time;durP1;ratioP1;P1;durP2;ratioP2;P2;SDS_P1;SDS_P2;PMS_P1;PMS_P2;Temp;Humidity;BMP_temperature;BMP_pressure;BME280_temperature;BME280_humidity;BME280_pressure;Samples;Min_cycle;Max_cycle;Signal;HPM_P1;HPM_P2
2021/03/21 00:00:50;;;;;;;9.60;4.47;;;;;;;2.26;60.30;101153.41;20906382;28;20045;-73
2021/03/21 00:10:54;;;;;;;13.38;5.90;;;;;;;2.25;60.63;101143.94;20906962;28;20488;-73
2021/03/21 00:20:56;;;;;;;14.90;5.93;;;;;;;2.16;58.90;101149.19;20916206;28;20094;-73
2021/03/21 00:30:58;;;;;;;9.40;4.32;;;;;;;2.16;60.30;101138.88;20987167;28;20104;-74
2021/03/21 00:41:01;;;;;;;8.57;3.67;;;;;;;2.21;59.26;101134.53;20987131;28;20403;-74
2021/03/21 00:51:03;;;;;;;5.97;2.85;;;;;;;2.18;58.84;101118.22;20970439;28;20045;-72
2021/03/21 01:01:04;;;;;;;7.10;2.90;;;;;;;2.15;59.87;101099.28;20984939;28;20105;-74
2021/03/21 01:11:15;;;;;;;6.85;2.75;;;;;;;2.18;57.98;101090.66;20985853;28;20066;-72
2021/03/21 01:21:16;;;;;;;5.28;2.30;;;;;;;2.08;57.19;101074.38;20968952;28;20503;-72
2021/03/21 01:31:20;;;;;;;8.25;3.17;;;;;;;2.13;56.04;101066.59;20966731;28;20040;-73
2021/03/21 01:41:30;;;;;;;5.83;2.43;;;;;;;2.03;54.91;101050.31;20881533;28;20045;-74
2021/03/21 01:51:34;;;;;;;7.70;2.72;;;;;;;2.05;55.78;101038.25;20869316;28;20389;-74
2021/03/21 02:01:35;;;;;;;7.80;2.43;;;;;;;2.17;58.05;101020.94;21004565;28;20048;-73
2021/03/21 02:11:46;;;;;;;6.85;2.88;;;;;;;2.19;58.54;101022.63;21028377;28;20071;-73
2021/03/21 02:21:56;;;;;;;7.90;3.58;;;;;;;2.19;58.45;101007.13;20999542;28;20684;-73
2021/03/21 02:32:22;;;;;;;7.13;3.15;;;;;;;2.24;59.59;100997.59;20978818;28;20110;-72
2021/03/21 02:42:37;;;;;;;9.27;4.10;;;;;;;2.26;58.50;100997.59;20996902;28;20044;-72
2021/03/21 02:52:43;;;;;;;8.93;4.20;;;;;;;2.28;59.70;100991.56;20978488;28;20293;-72
2021/03/21 03:02:55;;;;;;;10.40;4.50;;;;;;;2.28;59.86;100976.06;20994157;28;20049;-72
2021/03/21 03:13:20;;;;;;;11.65;4.40;;;;;;;2.25;59.02;100981.25;20975574;28;20049;-71
2021/03/21 03:23:28;;;;;;;9.93;4.55;;;;;;;2.24;62.60;100966.63;20977015;28;20040;-72
2021/03/21 03:33:29;;;;;;;10.02;4.72;;;;;;;2.26;60.88;100967.47;20991137;28;20087;-72
2021/03/21 03:43:52;;;;;;;8.63;4.00;;;;;;;2.30;59.75;100971.72;20828318;28;20505;-72
2021/03/21 03:54:22;;;;;;;9.05;4.20;;;;;;;2.29;62.25;100948.50;20910287;28;20446;-72
2021/03/21 04:04:50;;;;;;;10.85;4.40;;;;;;;2.30;62.32;100932.97;20981022;28;20175;-72
2021/03/21 04:15:06;;;;;;;9.88;4.32;;;;;;;2.24;63.31;100917.56;20987834;28;20045;-71
2021/03/21 04:25:16;;;;;;;9.65;4.80;;;;;;;2.26;63.60;100886.56;20971742;28;20051;-71
2021/03/21 04:35:24;;;;;;;12.05;5.60;;;;;;;2.28;63.37;100885.69;20986500;28;20492;-71
2021/03/21 04:45:31;;;;;;;11.32;5.25;;;;;;;2.25;60.73;100908.94;20987195;28;20665;-71
2021/03/21 04:55:38;;;;;;;12.27;5.88;;;;;;;2.20;61.63;100917.59;20969320;28;20045;-71
2021/03/21 05:05:45;;;;;;;12.07;5.68;;;;;;;2.26;61.99;100923.56;20985468;28;20437;-72
2021/03/21 05:15:55;;;;;;;13.25;6.85;;;;;;;2.28;62.02;100916.66;20984795;28;20052;-72
2021/03/21 05:26:19;;;;;;;12.50;6.80;;;;;;;2.31;63.44;100902.84;20964727;28;20076;-72
2021/03/21 05:36:54;;;;;;;16.55;7.32;;;;;;;2.36;63.16;100891.59;20825354;28;20046;-73
2021/03/21 05:46:55;;;;;;;15.20;8.07;;;;;;;2.33;64.04;100896.81;20810313;28;20491;-72
2021/03/21 05:57:19;;;;;;;14.77;7.68;;;;;;;2.46;63.12;100889.72;20969928;28;20056;-72
2021/03/21 06:07:52;;;;;;;13.65;7.45;;;;;;;2.53;64.70;100889.66;20998022;28;20036;-73
2021/03/21 06:18:18;;;;;;;17.90;7.80;;;;;;;2.54;63.63;100893.06;20996404;28;20061;-73
2021/03/21 06:28:52;;;;;;;19.55;8.20;;;;;;;2.46;63.92;100887.16;20986499;28;20056;-72
2021/03/21 06:39:11;;;;;;;19.10;8.43;;;;;;;2.50;65.53;100884.50;20994880;28;20044;-72
2021/03/21 06:49:49;;;;;;;14.48;7.68;;;;;;;2.62;64.90;100892.97;20987662;28;20523;-72
2021/03/21 07:00:12;;;;;;;14.50;7.55;;;;;;;2.75;64.84;100882.41;20944878;28;20048;-72
2021/03/21 07:10:31;;;;;;;16.75;6.88;;;;;;;2.76;65.84;100867.78;20993852;28;20044;-72
2021/03/21 07:21:03;;;;;;;14.38;7.20;;;;;;;2.87;66.83;100876.22;20977977;28;20044;-72
2021/03/21 07:31:23;;;;;;;15.75;8.02;;;;;;;3.15;66.50;100846.44;20831166;28;20050;-72
2021/03/21 07:41:47;;;;;;;15.18;7.95;;;;;;;3.78;64.54;100792.66;20904046;28;20104;-72
2021/03/21 07:52:13;;;;;;;14.13;7.80;;;;;;;4.13;63.74;100802.28;20898682;28;20049;-72
2021/03/21 08:02:22;;;;;;;14.93;7.68;;;;;;;4.39;63.13;100808.63;20887606;28;20893;-72
2021/03/21 08:12:44;;;;;;;14.88;7.30;;;;;;;4.11;63.73;100793.72;20881995;28;20551;-71
2021/03/21 08:22:47;;;;;;;13.10;7.03;;;;;;;4.26;62.26;100810.66;20902751;28;20088;-71
2021/03/21 08:33:02;;;;;;;13.90;7.43;;;;;;;4.32;62.03;100822.63;20903596;28;20049;-71
2021/03/21 08:43:26;;;;;;;13.20;7.17;;;;;;;4.28;63.22;100814.91;20892695;28;20128;-71
2021/03/21 08:53:32;;;;;;;15.73;7.22;;;;;;;4.67;63.56;100810.53;20891233;28;20045;-71
2021/03/21 09:03:33;;;;;;;14.10;7.03;;;;;;;4.63;62.16;100813.25;20885582;28;20447;-72
2021/03/21 09:13:36;;;;;;;15.10;8.18;;;;;;;4.77;62.58;100836.28;20885305;28;20043;-72
2021/03/21 09:23:42;;;;;;;14.52;7.30;;;;;;;4.74;64.38;100832.00;20887136;28;20106;-72
2021/03/21 09:34:09;;;;;;;20.00;9.82;;;;;;;5.01;63.30;100838.28;20862444;28;20041;-71
2021/03/21 09:44:28;;;;;;;18.65;9.52;;;;;;;5.19;67.46;100832.63;20866206;28;20046;-71
2021/03/21 09:54:38;;;;;;;15.35;8.50;;;;;;;4.82;71.61;100855.19;20874520;28;20049;-71
2021/03/21 10:04:53;;;;;;;12.63;7.15;;;;;;;4.61;73.92;100838.38;20891448;28;20045;-71
2021/03/21 10:15:09;;;;;;;16.55;9.20;;;;;;;4.77;75.09;100825.91;20897660;28;20049;-72
2021/03/21 10:25:10;;;;;;;13.50;7.88;;;;;;;4.99;74.48;100833.13;20914763;28;20114;-71
2021/03/21 10:35:31;;;;;;;12.25;7.18;;;;;;;5.30;73.68;100817.63;20912433;28;20045;-71
2021/03/21 10:45:35;;;;;;;14.77;7.57;;;;;;;6.14;70.63;100804.97;20896898;28;20048;-72
2021/03/21 10:55:41;;;;;;;16.20;7.90;;;;;;;6.31;70.62;100771.50;20909284;28;20045;-72
2021/03/21 11:05:45;;;;;;;15.00;8.18;;;;;;;6.65;66.75;100782.56;20887187;28;20463;-72
2021/03/21 11:15:46;;;;;;;12.70;7.75;;;;;;;7.28;65.00;100773.50;20896546;28;20045;-72
2021/03/21 11:25:47;;;;;;;15.00;9.00;;;;;;;7.48;62.94;100765.84;20908852;28;20064;-71
2021/03/21 11:35:48;;;;;;;18.60;9.88;;;;;;;7.72;64.00;100749.31;20906558;28;20094;-71
2021/03/21 11:45:51;;;;;;;16.95;8.77;;;;;;;7.10;67.42;100768.94;20901575;28;20408;-71
2021/03/21 11:55:58;;;;;;;16.23;9.80;;;;;;;6.74;73.66;100753.66;20906813;28;20049;-71
2021/03/21 12:06:04;;;;;;;17.98;10.07;;;;;;;6.46;72.42;100750.22;20889786;28;20045;-71
2021/03/21 12:16:27;;;;;;;17.10;10.80;;;;;;;6.39;74.55;100748.72;20887580;28;20041;-72
2021/03/21 12:26:31;;;;;;;16.50;10.20;;;;;;;6.70;71.23;100744.25;20889106;28;20045;-71
2021/03/21 12:36:33;;;;;;;20.48;10.57;;;;;;;7.27;70.93;100740.53;20886505;28;20459;-72
2021/03/21 12:46:46;;;;;;;17.90;10.55;;;;;;;7.87;69.03;100714.03;20902725;28;20127;-72
2021/03/21 12:56:47;;;;;;;17.88;11.13;;;;;;;7.66;69.61;100707.88;20892352;28;20052;-71
2021/03/21 13:06:48;;;;;;;20.55;12.43;;;;;;;6.90;72.91;100706.31;20902844;28;20041;-71
2021/03/21 13:16:49;;;;;;;18.02;11.10;;;;;;;6.53;74.75;100691.94;20900667;28;20484;-72
2021/03/21 13:26:51;;;;;;;20.63;12.60;;;;;;;6.90;74.17;100685.50;20900014;28;20436;-72
2021/03/21 13:36:52;;;;;;;20.88;11.02;;;;;;;7.47;71.84;100659.94;20893690;28;20048;-72
2021/03/21 13:46:53;;;;;;;19.00;11.30;;;;;;;7.27;73.61;100650.28;20898279;28;20401;-72
2021/03/21 13:56:55;;;;;;;17.73;10.45;;;;;;;7.48;73.31;100635.59;20914918;28;20045;-72
2021/03/21 14:06:56;;;;;;;18.17;10.70;;;;;;;7.68;72.17;100627.03;20914040;28;20234;-71
2021/03/21 14:16:57;;;;;;;19.13;11.88;;;;;;;7.78;71.96;100614.50;20910973;28;20519;-71
2021/03/21 14:26:58;;;;;;;20.95;13.15;;;;;;;7.73;71.59;100607.72;20910922;28;20389;-71
2021/03/21 14:36:59;;;;;;;19.67;12.40;;;;;;;7.84;71.50;100580.38;20911233;28;20053;-71
2021/03/21 14:46:59;;;;;;;20.73;12.32;;;;;;;7.69;71.86;100577.47;20908551;28;20095;-71
2021/03/21 14:57:01;;;;;;;17.15;11.15;;;;;;;7.43;72.59;100577.66;20907038;28;20069;-72
2021/03/21 15:07:02;;;;;;;19.23;11.32;;;;;;;7.37;73.21;100585.69;20908976;28;20114;-72
2021/03/21 15:17:04;;;;;;;17.65;11.30;;;;;;;7.23;73.33;100582.75;20911101;28;20049;-71
2021/03/21 15:27:05;;;;;;;22.27;12.60;;;;;;;7.17;73.27;100583.84;20905448;28;20045;-71
2021/03/21 15:37:06;;;;;;;19.63;11.68;;;;;;;7.04;71.53;100586.97;20901819;28;20424;-71
2021/03/21 15:47:08;;;;;;;19.70;11.93;;;;;;;6.90;73.15;100584.88;20909154;28;20080;-71
2021/03/21 15:57:09;;;;;;;18.67;11.13;;;;;;;6.93;73.54;100602.09;20890102;28;20055;-72
2021/03/21 16:07:10;;;;;;;16.45;10.70;;;;;;;7.04;73.03;100585.22;20903519;28;20099;-71
2021/03/21 16:17:11;;;;;;;22.08;13.27;;;;;;;6.95;73.07;100588.16;20900810;28;20041;-72
2021/03/21 16:27:12;;;;;;;19.63;11.48;;;;;;;6.69;72.51;100591.69;20899858;28;20049;-71
2021/03/21 16:37:13;;;;;;;16.67;10.43;;;;;;;6.49;73.54;100609.72;20884054;28;20041;-68
2021/03/21 16:47:14;;;;;;;19.42;10.55;;;;;;;6.51;73.86;100604.44;20903818;28;20728;-70
2021/03/21 16:57:16;;;;;;;21.55;12.93;;;;;;;6.55;74.83;100625.13;20903533;28;20481;-69
2021/03/21 17:07:17;;;;;;;19.35;10.93;;;;;;;6.39;75.36;100632.59;20877378;28;20415;-69
2021/03/21 17:17:29;;;;;;;18.83;11.00;;;;;;;6.25;76.08;100631.31;20906662;28;20411;-69
2021/03/21 17:27:31;;;;;;;23.38;13.35;;;;;;;6.15;75.34;100641.16;20941480;28;20065;-68
2021/03/21 17:37:32;;;;;;;18.27;10.80;;;;;;;6.06;77.89;100651.88;20947303;28;20171;-69
2021/03/21 17:47:53;;;;;;;21.88;12.15;;;;;;;5.89;77.81;100654.97;20915049;28;20136;-68
2021/03/21 17:57:55;;;;;;;19.98;11.57;;;;;;;5.71;77.24;100655.53;20912721;28;20405;-69
2021/03/21 18:07:56;;;;;;;30.05;16.42;;;;;;;5.66;77.52;100670.41;20916044;28;20045;-69
2021/03/21 18:18:15;;;;;;;20.20;12.15;;;;;;;5.63;78.26;100673.09;20912172;28;20080;-69
2021/03/21 18:28:17;;;;;;;24.65;13.43;;;;;;;5.59;78.26;100687.03;20914333;28;20049;-69
2021/03/21 18:38:18;;;;;;;23.52;13.93;;;;;;;5.50;78.53;100703.75;20911641;28;20045;-68
2021/03/21 18:48:20;;;;;;;23.67;13.20;;;;;;;5.42;78.67;100710.91;20908672;28;20051;-69
2021/03/21 18:58:21;;;;;;;24.42;12.27;;;;;;;5.27;80.29;100710.47;20908095;28;20407;-69
2021/03/21 19:08:22;;;;;;;25.10;13.88;;;;;;;5.20;80.34;100711.53;20934904;28;20049;-69
2021/03/21 19:18:23;;;;;;;24.25;11.50;;;;;;;5.25;78.53;100709.66;20909860;28;20496;-68
2021/03/21 19:28:25;;;;;;;32.33;12.48;;;;;;;5.18;77.14;100706.41;20893685;28;20072;-68
2021/03/21 19:38:29;;;;;;;23.45;9.05;;;;;;;5.24;72.62;100720.91;20904922;28;20047;-69
2021/03/21 19:48:30;;;;;;;31.98;8.07;;;;;;;5.24;72.23;100737.34;20903110;28;20095;-68
2021/03/21 19:58:33;;;;;;;23.13;7.72;;;;;;;5.10;72.22;100734.28;20888407;28;20044;-69
2021/03/21 20:08:34;;;;;;;31.05;10.50;;;;;;;4.96;73.99;100763.19;20906407;28;20041;-68
2021/03/21 20:18:35;;;;;;;30.77;15.35;;;;;;;4.93;78.12;100760.66;20905065;28;20041;-69
2021/03/21 20:28:36;;;;;;;24.83;12.25;;;;;;;4.72;80.93;100762.03;20890665;28;20525;-68
2021/03/21 20:38:37;;;;;;;26.52;11.02;;;;;;;4.67;78.26;100755.28;20885632;28;20124;-69
2021/03/21 20:48:39;;;;;;;27.90;11.48;;;;;;;4.62;78.83;100767.50;20888779;28;20087;-68
2021/03/21 20:58:40;;;;;;;28.88;8.63;;;;;;;4.85;71.70;100766.94;20887438;28;20045;-68
2021/03/21 21:08:41;;;;;;;34.20;8.55;;;;;;;5.03;70.77;100767.31;20891159;28;20049;-68
2021/03/21 21:18:42;;;;;;;30.65;7.25;;;;;;;4.99;70.74;100772.63;20896569;28;20057;-67
2021/03/21 21:28:43;;;;;;;21.58;7.00;;;;;;;5.04;70.74;100776.78;20898000;28;20095;-68
2021/03/21 21:38:44;;;;;;;27.63;6.93;;;;;;;5.05;70.13;100770.72;20894881;28;20045;-68
2021/03/21 21:48:45;;;;;;;24.85;8.45;;;;;;;5.11;69.44;100783.53;20895424;28;20053;-68
2021/03/21 21:58:46;;;;;;;32.60;8.38;;;;;;;5.13;68.45;100797.31;20877207;28;20057;-68
2021/03/21 22:08:47;;;;;;;29.65;6.97;;;;;;;5.09;69.39;100790.50;20897982;28;20041;-69
2021/03/21 22:18:48;;;;;;;34.53;6.97;;;;;;;5.17;68.70;100787.72;20915319;28;20099;-72
2021/03/21 22:28:50;;;;;;;35.05;6.72;;;;;;;5.03;69.22;100785.47;20914336;28;20139;-71
2021/03/21 22:38:52;;;;;;;33.55;7.25;;;;;;;4.98;69.01;100792.50;20893544;28;20045;-71
2021/03/21 22:48:53;;;;;;;33.92;6.38;;;;;;;5.12;68.56;100799.97;20910083;28;20437;-72
2021/03/21 22:58:55;;;;;;;29.05;7.43;;;;;;;4.98;68.71;100795.09;20911809;28;20044;-71
2021/03/21 23:08:56;;;;;;;29.38;5.43;;;;;;;4.97;69.01;100801.19;20911683;28;20092;-73
2021/03/21 23:18:57;;;;;;;24.45;5.75;;;;;;;4.90;69.68;100802.22;20904171;28;20053;-71
2021/03/21 23:28:58;;;;;;;23.40;6.35;;;;;;;4.89;69.16;100805.72;20904577;28;20048;-71
2021/03/21 23:38:59;;;;;;;24.80;5.40;;;;;;;4.82;70.14;100796.41;20888622;28;20045;-71
2021/03/21 23:49:00;;;;;;;29.20;6.22;;;;;;;4.79;70.34;100817.19;20905440;28;20037;-74
2021/03/21 23:59:02;;;;;;;27.10;5.50;;;;;;;4.71;71.39;100807.03;20898964;28;20049;-71
